sensor_id;sensor_type;location;lat;lon;timestamp;P1;durP1;ratioP1;P2;durP2;ratioP2
66145;SDS011;52948;60.040;30.320;2023-03-31T00:02:34;11.95;;;7.55;;
66145;SDS011;52948;60.040;30.320;2023-03-31T00:07:43;11.68;;;7.05;;
66145;SDS011;52948;60.040;30.320;2023-03-31T00:12:50;12.23;;;7.50;;
66145;SDS011;52948;60.040;30.320;2023-03-31T00:17:54;11.57;;;6.90;;
66145;SDS011;52948;60.040;30.320;2023-03-31T00:23:00;10.25;;;6.95;;
66145;SDS011;52948;60.040;30.320;2023-03-31T00:28:03;11.20;;;7.15;;
66145;SDS011;52948;60.040;30.320;2023-03-31T00:33:05;10.55;;;7.05;;
66145;SDS011;52948;60.040;30.320;2023-03-31T00:38:07;10.73;;;7.47;;
66145;SDS011;52948;60.040;30.320;2023-03-31T00:43:14;12.35;;;6.80;;
66145;SDS011;52948;60.040;30.320;2023-03-31T00:48:25;10.55;;;7.22;;
66145;SDS011;52948;60.040;30.320;2023-03-31T00:53:31;11.65;;;7.47;;
66145;SDS011;52948;60.040;30.320;2023-03-31T00:58:37;10.85;;;6.93;;
66145;SDS011;52948;60.040;30.320;2023-03-31T01:03:46;11.57;;;7.55;;
66145;SDS011;52948;60.040;30.320;2023-03-31T01:09:31;12.15;;;8.40;;
66145;SDS011;52948;60.040;30.320;2023-03-31T01:14:42;12.95;;;8.20;;
66145;SDS011;52948;60.040;30.320;2023-03-31T01:25:05;12.48;;;7.88;;
66145;SDS011;52948;60.040;30.320;2023-03-31T01:30:55;10.70;;;7.50;;
66145;SDS011;52948;60.040;30.320;2023-03-31T01:36:18;15.27;;;7.88;;
66145;SDS011;52948;60.040;30.320;2023-03-31T01:51:59;12.57;;;8.25;;
66145;SDS011;52948;60.040;30.320;2023-03-31T02:02:18;13.65;;;8.38;;
66145;SDS011;52948;60.040;30.320;2023-03-31T02:12:42;14.45;;;8.32;;
66145;SDS011;52948;60.040;30.320;2023-03-31T02:17:50;16.63;;;9.30;;
66145;SDS011;52948;60.040;30.320;2023-03-31T02:22:55;15.68;;;9.20;;
66145;SDS011;52948;60.040;30.320;2023-03-31T02:28:03;17.73;;;9.82;;
66145;SDS011;52948;60.040;30.320;2023-03-31T02:33:10;16.65;;;9.07;;
66145;SDS011;52948;60.040;30.320;2023-03-31T02:38:12;15.57;;;9.80;;
66145;SDS011;52948;60.040;30.320;2023-03-31T02:43:14;15.00;;;9.32;;
66145;SDS011;52948;60.040;30.320;2023-03-31T02:59:09;17.88;;;10.50;;
66145;SDS011;52948;60.040;30.320;2023-03-31T03:09:51;18.13;;;10.02;;
66145;SDS011;52948;60.040;30.320;2023-03-31T03:20:19;18.90;;;10.48;;
66145;SDS011;52948;60.040;30.320;2023-03-31T03:25:24;21.13;;;10.77;;
66145;SDS011;52948;60.040;30.320;2023-03-31T03:30:27;17.55;;;10.05;;
66145;SDS011;52948;60.040;30.320;2023-03-31T03:35:29;18.83;;;10.38;;
66145;SDS011;52948;60.040;30.320;2023-03-31T03:40:31;18.88;;;10.35;;
66145;SDS011;52948;60.040;30.320;2023-03-31T03:45:33;18.95;;;10.48;;
66145;SDS011;52948;60.040;30.320;2023-03-31T03:50:36;20.60;;;10.73;;
66145;SDS011;52948;60.040;30.320;2023-03-31T03:55:41;18.20;;;10.77;;
66145;SDS011;52948;60.040;30.320;2023-03-31T04:00:44;17.70;;;10.35;;
66145;SDS011;52948;60.040;30.320;2023-03-31T04:05:46;17.77;;;9.82;;
66145;SDS011;52948;60.040;30.320;2023-03-31T04:10:50;22.85;;;11.02;;
66145;SDS011;52948;60.040;30.320;2023-03-31T04:15:55;21.40;;;11.98;;
66145;SDS011;52948;60.040;30.320;2023-03-31T04:20:57;20.63;;;11.52;;
66145;SDS011;52948;60.040;30.320;2023-03-31T04:31:09;20.13;;;11.20;;
66145;SDS011;52948;60.040;30.320;2023-03-31T04:36:16;16.92;;;10.45;;
66145;SDS011;52948;60.040;30.320;2023-03-31T04:41:18;21.35;;;11.48;;
66145;SDS011;52948;60.040;30.320;2023-03-31T04:46:21;20.23;;;11.32;;
66145;SDS011;52948;60.040;30.320;2023-03-31T04:51:27;20.45;;;11.38;;
66145;SDS011;52948;60.040;30.320;2023-03-31T04:56:33;21.55;;;10.45;;
66145;SDS011;52948;60.040;30.320;2023-03-31T05:01:39;22.02;;;12.63;;
66145;SDS011;52948;60.040;30.320;2023-03-31T05:06:49;23.73;;;11.82;;
66145;SDS011;52948;60.040;30.320;2023-03-31T05:11:52;22.15;;;11.77;;
66145;SDS011;52948;60.040;30.320;2023-03-31T05:16:55;22.08;;;11.95;;
66145;SDS011;52948;60.040;30.320;2023-03-31T05:22:02;24.93;;;12.50;;
66145;SDS011;52948;60.040;30.320;2023-03-31T05:27:27;23.38;;;11.55;;
66145;SDS011;52948;60.040;30.320;2023-03-31T05:38:42;25.13;;;12.45;;
66145;SDS011;52948;60.040;30.320;2023-03-31T05:43:45;22.45;;;12.25;;
66145;SDS011;52948;60.040;30.320;2023-03-31T05:49:07;22.17;;;12.30;;
66145;SDS011;52948;60.040;30.320;2023-03-31T05:54:09;24.33;;;12.25;;
66145;SDS011;52948;60.040;30.320;2023-03-31T05:59:12;21.60;;;12.15;;
66145;SDS011;52948;60.040;30.320;2023-03-31T06:10:25;21.93;;;12.30;;
66145;SDS011;52948;60.040;30.320;2023-03-31T06:15:31;25.20;;;12.43;;
66145;SDS011;52948;60.040;30.320;2023-03-31T06:20:33;22.08;;;11.13;;
66145;SDS011;52948;60.040;30.320;2023-03-31T06:25:39;22.45;;;12.07;;
66145;SDS011;52948;60.040;30.320;2023-03-31T06:30:41;23.63;;;12.32;;
66145;SDS011;52948;60.040;30.320;2023-03-31T06:35:48;20.80;;;11.57;;
66145;SDS011;52948;60.040;30.320;2023-03-31T06:40:51;20.15;;;11.93;;
66145;SDS011;52948;60.040;30.320;2023-03-31T06:45:53;20.17;;;11.45;;
66145;SDS011;52948;60.040;30.320;2023-03-31T06:50:58;24.35;;;12.57;;
66145;SDS011;52948;60.040;30.320;2023-03-31T06:56:01;24.33;;;13.13;;
66145;SDS011;52948;60.040;30.320;2023-03-31T07:01:08;24.13;;;13.05;;
66145;SDS011;52948;60.040;30.320;2023-03-31T07:06:16;21.08;;;10.65;;
66145;SDS011;52948;60.040;30.320;2023-03-31T07:11:18;19.95;;;11.60;;
66145;SDS011;52948;60.040;30.320;2023-03-31T07:16:45;21.67;;;11.30;;
66145;SDS011;52948;60.040;30.320;2023-03-31T07:21:47;21.80;;;11.07;;
66145;SDS011;52948;60.040;30.320;2023-03-31T07:26:50;18.98;;;10.63;;
66145;SDS011;52948;60.040;30.320;2023-03-31T07:31:52;16.05;;;8.45;;
66145;SDS011;52948;60.040;30.320;2023-03-31T07:36:54;16.40;;;9.70;;
66145;SDS011;52948;60.040;30.320;2023-03-31T07:41:57;12.52;;;7.88;;
66145;SDS011;52948;60.040;30.320;2023-03-31T07:47:04;14.07;;;8.45;;
66145;SDS011;52948;60.040;30.320;2023-03-31T07:52:10;20.80;;;11.18;;
66145;SDS011;52948;60.040;30.320;2023-03-31T07:57:13;18.30;;;10.70;;
66145;SDS011;52948;60.040;30.320;2023-03-31T08:02:18;15.73;;;9.50;;
66145;SDS011;52948;60.040;30.320;2023-03-31T08:07:24;20.92;;;10.02;;
66145;SDS011;52948;60.040;30.320;2023-03-31T08:12:26;15.82;;;9.27;;
66145;SDS011;52948;60.040;30.320;2023-03-31T08:17:32;16.20;;;8.77;;
66145;SDS011;52948;60.040;30.320;2023-03-31T08:22:35;17.77;;;10.57;;
66145;SDS011;52948;60.040;30.320;2023-03-31T08:27:39;15.70;;;9.50;;
66145;SDS011;52948;60.040;30.320;2023-03-31T08:32:41;16.75;;;10.27;;
66145;SDS011;52948;60.040;30.320;2023-03-31T08:37:43;17.13;;;9.25;;
66145;SDS011;52948;60.040;30.320;2023-03-31T08:42:49;15.25;;;9.43;;
66145;SDS011;52948;60.040;30.320;2023-03-31T08:47:59;20.08;;;9.38;;
66145;SDS011;52948;60.040;30.320;2023-03-31T08:53:31;15.10;;;9.57;;
66145;SDS011;52948;60.040;30.320;2023-03-31T08:58:41;15.70;;;9.27;;
66145;SDS011;52948;60.040;30.320;2023-03-31T09:15:01;13.75;;;8.05;;
66145;SDS011;52948;60.040;30.320;2023-03-31T09:20:11;12.20;;;8.02;;
66145;SDS011;52948;60.040;30.320;2023-03-31T09:30:29;11.63;;;7.47;;
66145;SDS011;52948;60.040;30.320;2023-03-31T09:35:33;14.07;;;8.02;;
66145;SDS011;52948;60.040;30.320;2023-03-31T09:40:35;11.30;;;6.50;;
66145;SDS011;52948;60.040;30.320;2023-03-31T09:45:37;10.48;;;6.85;;
66145;SDS011;52948;60.040;30.320;2023-03-31T09:50:50;10.20;;;6.50;;
66145;SDS011;52948;60.040;30.320;2023-03-31T09:55:54;12.57;;;6.80;;
66145;SDS011;52948;60.040;30.320;2023-03-31T10:01:04;10.23;;;6.40;;
66145;SDS011;52948;60.040;30.320;2023-03-31T10:06:07;12.02;;;7.15;;
66145;SDS011;52948;60.040;30.320;2023-03-31T10:11:11;9.65;;;6.63;;
66145;SDS011;52948;60.040;30.320;2023-03-31T10:16:32;8.82;;;6.72;;
66145;SDS011;52948;60.040;30.320;2023-03-31T10:21:36;16.58;;;7.57;;
66145;SDS011;52948;60.040;30.320;2023-03-31T10:26:42;15.25;;;7.97;;
66145;SDS011;52948;60.040;30.320;2023-03-31T10:31:45;14.02;;;7.60;;
66145;SDS011;52948;60.040;30.320;2023-03-31T10:36:48;26.27;;;8.98;;
66145;SDS011;52948;60.040;30.320;2023-03-31T10:41:52;18.90;;;7.78;;
66145;SDS011;52948;60.040;30.320;2023-03-31T10:46:55;13.23;;;7.38;;
66145;SDS011;52948;60.040;30.320;2023-03-31T10:52:21;14.95;;;7.65;;
66145;SDS011;52948;60.040;30.320;2023-03-31T10:57:32;14.65;;;7.80;;
66145;SDS011;52948;60.040;30.320;2023-03-31T11:08:36;16.85;;;9.15;;
66145;SDS011;52948;60.040;30.320;2023-03-31T11:30:16;13.25;;;8.70;;
66145;SDS011;52948;60.040;30.320;2023-03-31T11:46:16;11.05;;;7.03;;
66145;SDS011;52948;60.040;30.320;2023-03-31T11:51:29;10.97;;;7.27;;
66145;SDS011;52948;60.040;30.320;2023-03-31T11:56:37;9.77;;;6.13;;
66145;SDS011;52948;60.040;30.320;2023-03-31T12:06:49;25.70;;;7.70;;
66145;SDS011;52948;60.040;30.320;2023-03-31T12:11:56;9.77;;;6.25;;
66145;SDS011;52948;60.040;30.320;2023-03-31T12:17:24;8.20;;;5.38;;
66145;SDS011;52948;60.040;30.320;2023-03-31T12:22:38;8.38;;;6.00;;
66145;SDS011;52948;60.040;30.320;2023-03-31T12:27:47;5.80;;;4.50;;
66145;SDS011;52948;60.040;30.320;2023-03-31T12:33:00;12.75;;;5.40;;
66145;SDS011;52948;60.040;30.320;2023-03-31T12:43:47;8.05;;;5.43;;
66145;SDS011;52948;60.040;30.320;2023-03-31T12:54:18;9.35;;;6.18;;
66145;SDS011;52948;60.040;30.320;2023-03-31T12:59:36;9.68;;;6.28;;
66145;SDS011;52948;60.040;30.320;2023-03-31T13:04:38;7.35;;;5.30;;
66145;SDS011;52948;60.040;30.320;2023-03-31T13:09:47;8.85;;;5.72;;
66145;SDS011;52948;60.040;30.320;2023-03-31T13:14:54;10.27;;;6.43;;
66145;SDS011;52948;60.040;30.320;2023-03-31T13:30:56;8.35;;;6.55;;
66145;SDS011;52948;60.040;30.320;2023-03-31T13:46:36;9.75;;;6.07;;
66145;SDS011;52948;60.040;30.320;2023-03-31T13:52:00;8.82;;;5.95;;
66145;SDS011;52948;60.040;30.320;2023-03-31T14:02:31;10.32;;;6.70;;
66145;SDS011;52948;60.040;30.320;2023-03-31T14:13:05;16.75;;;6.00;;
66145;SDS011;52948;60.040;30.320;2023-03-31T14:18:11;8.18;;;5.65;;
66145;SDS011;52948;60.040;30.320;2023-03-31T14:39:20;15.30;;;5.37;;
66145;SDS011;52948;60.040;30.320;2023-03-31T14:44:24;7.53;;;5.10;;
66145;SDS011;52948;60.040;30.320;2023-03-31T14:49:36;6.60;;;4.70;;
66145;SDS011;52948;60.040;30.320;2023-03-31T14:54:39;9.35;;;4.60;;
66145;SDS011;52948;60.040;30.320;2023-03-31T14:59:42;7.55;;;5.65;;
66145;SDS011;52948;60.040;30.320;2023-03-31T15:04:46;7.20;;;4.70;;
66145;SDS011;52948;60.040;30.320;2023-03-31T15:09:50;7.82;;;5.07;;
66145;SDS011;52948;60.040;30.320;2023-03-31T15:14:56;8.05;;;5.45;;
66145;SDS011;52948;60.040;30.320;2023-03-31T15:25:38;13.30;;;5.63;;
66145;SDS011;52948;60.040;30.320;2023-03-31T15:30:48;8.20;;;4.90;;
66145;SDS011;52948;60.040;30.320;2023-03-31T15:36:03;9.55;;;4.97;;
66145;SDS011;52948;60.040;30.320;2023-03-31T15:41:12;7.25;;;4.72;;
66145;SDS011;52948;60.040;30.320;2023-03-31T15:46:23;9.13;;;4.93;;
66145;SDS011;52948;60.040;30.320;2023-03-31T15:51:32;8.25;;;5.63;;
66145;SDS011;52948;60.040;30.320;2023-03-31T15:56:41;8.85;;;5.05;;
66145;SDS011;52948;60.040;30.320;2023-03-31T16:01:49;11.73;;;5.93;;
66145;SDS011;52948;60.040;30.320;2023-03-31T16:07:02;8.55;;;5.20;;
66145;SDS011;52948;60.040;30.320;2023-03-31T16:12:17;7.30;;;5.20;;
66145;SDS011;52948;60.040;30.320;2023-03-31T16:17:33;9.90;;;5.85;;
66145;SDS011;52948;60.040;30.320;2023-03-31T16:22:41;10.85;;;5.70;;
66145;SDS011;52948;60.040;30.320;2023-03-31T16:27:52;11.40;;;6.10;;
66145;SDS011;52948;60.040;30.320;2023-03-31T16:38:05;9.15;;;5.68;;
66145;SDS011;52948;60.040;30.320;2023-03-31T16:48:24;7.65;;;5.90;;
66145;SDS011;52948;60.040;30.320;2023-03-31T16:53:29;9.38;;;6.57;;
66145;SDS011;52948;60.040;30.320;2023-03-31T16:58:32;8.63;;;5.60;;
66145;SDS011;52948;60.040;30.320;2023-03-31T17:08:51;9.50;;;6.10;;
66145;SDS011;52948;60.040;30.320;2023-03-31T17:13:53;8.27;;;5.65;;
66145;SDS011;52948;60.040;30.320;2023-03-31T17:18:57;9.63;;;6.82;;
66145;SDS011;52948;60.040;30.320;2023-03-31T17:23:59;7.70;;;5.95;;
66145;SDS011;52948;60.040;30.320;2023-03-31T17:29:01;8.30;;;6.15;;
66145;SDS011;52948;60.040;30.320;2023-03-31T17:34:04;8.32;;;5.70;;
66145;SDS011;52948;60.040;30.320;2023-03-31T17:39:06;7.97;;;5.65;;
66145;SDS011;52948;60.040;30.320;2023-03-31T17:44:09;8.13;;;6.00;;
66145;SDS011;52948;60.040;30.320;2023-03-31T17:54:40;10.30;;;6.93;;
66145;SDS011;52948;60.040;30.320;2023-03-31T17:59:43;10.05;;;5.88;;
66145;SDS011;52948;60.040;30.320;2023-03-31T18:04:47;8.80;;;5.85;;
66145;SDS011;52948;60.040;30.320;2023-03-31T18:09:49;8.27;;;5.70;;
66145;SDS011;52948;60.040;30.320;2023-03-31T18:14:51;9.43;;;5.72;;
66145;SDS011;52948;60.040;30.320;2023-03-31T18:19:53;10.60;;;7.70;;
66145;SDS011;52948;60.040;30.320;2023-03-31T18:24:57;9.88;;;6.22;;
66145;SDS011;52948;60.040;30.320;2023-03-31T18:29:59;9.88;;;6.07;;
66145;SDS011;52948;60.040;30.320;2023-03-31T18:35:01;7.78;;;5.80;;
66145;SDS011;52948;60.040;30.320;2023-03-31T18:40:03;8.32;;;6.53;;
66145;SDS011;52948;60.040;30.320;2023-03-31T18:45:06;8.32;;;6.07;;
66145;SDS011;52948;60.040;30.320;2023-03-31T18:50:09;6.88;;;5.07;;
66145;SDS011;52948;60.040;30.320;2023-03-31T18:55:12;7.00;;;4.82;;
66145;SDS011;52948;60.040;30.320;2023-03-31T19:00:14;6.55;;;5.43;;
66145;SDS011;52948;60.040;30.320;2023-03-31T19:05:17;5.68;;;4.32;;
66145;SDS011;52948;60.040;30.320;2023-03-31T19:10:20;5.75;;;4.13;;
66145;SDS011;52948;60.040;30.320;2023-03-31T19:15:22;6.70;;;4.97;;
66145;SDS011;52948;60.040;30.320;2023-03-31T19:20:26;7.05;;;5.78;;
66145;SDS011;52948;60.040;30.320;2023-03-31T19:25:28;7.82;;;5.35;;
66145;SDS011;52948;60.040;30.320;2023-03-31T19:30:31;9.25;;;7.28;;
66145;SDS011;52948;60.040;30.320;2023-03-31T19:35:37;7.20;;;5.25;;
66145;SDS011;52948;60.040;30.320;2023-03-31T19:40:43;8.48;;;6.40;;
66145;SDS011;52948;60.040;30.320;2023-03-31T19:45:46;7.53;;;6.03;;
66145;SDS011;52948;60.040;30.320;2023-03-31T19:50:49;7.85;;;5.80;;
66145;SDS011;52948;60.040;30.320;2023-03-31T20:01:00;8.75;;;5.25;;
66145;SDS011;52948;60.040;30.320;2023-03-31T20:06:05;10.25;;;6.22;;
66145;SDS011;52948;60.040;30.320;2023-03-31T20:11:09;9.82;;;6.07;;
66145;SDS011;52948;60.040;30.320;2023-03-31T20:16:15;7.22;;;5.45;;
66145;SDS011;52948;60.040;30.320;2023-03-31T20:21:20;8.35;;;5.60;;
66145;SDS011;52948;60.040;30.320;2023-03-31T20:26:26;8.90;;;5.93;;
66145;SDS011;52948;60.040;30.320;2023-03-31T20:31:34;8.38;;;5.72;;
66145;SDS011;52948;60.040;30.320;2023-03-31T20:36:40;6.43;;;5.20;;
66145;SDS011;52948;60.040;30.320;2023-03-31T20:41:44;5.43;;;4.40;;
66145;SDS011;52948;60.040;30.320;2023-03-31T20:46:46;6.28;;;4.90;;
66145;SDS011;52948;60.040;30.320;2023-03-31T20:51:49;6.18;;;4.32;;
66145;SDS011;52948;60.040;30.320;2023-03-31T20:56:51;5.00;;;4.03;;
66145;SDS011;52948;60.040;30.320;2023-03-31T21:01:55;6.22;;;4.80;;
66145;SDS011;52948;60.040;30.320;2023-03-31T21:06:58;5.50;;;4.93;;
66145;SDS011;52948;60.040;30.320;2023-03-31T21:12:00;7.60;;;5.35;;
66145;SDS011;52948;60.040;30.320;2023-03-31T21:17:04;6.65;;;5.13;;
66145;SDS011;52948;60.040;30.320;2023-03-31T21:22:07;6.18;;;4.18;;
66145;SDS011;52948;60.040;30.320;2023-03-31T21:27:10;5.95;;;4.10;;
66145;SDS011;52948;60.040;30.320;2023-03-31T21:32:13;6.80;;;5.10;;
66145;SDS011;52948;60.040;30.320;2023-03-31T21:37:16;6.38;;;5.22;;
66145;SDS011;52948;60.040;30.320;2023-03-31T21:42:18;7.30;;;4.40;;
66145;SDS011;52948;60.040;30.320;2023-03-31T21:47:21;5.53;;;4.30;;
66145;SDS011;52948;60.040;30.320;2023-03-31T21:52:24;5.82;;;3.88;;
66145;SDS011;52948;60.040;30.320;2023-03-31T21:57:26;6.40;;;3.67;;
66145;SDS011;52948;60.040;30.320;2023-03-31T22:02:28;5.35;;;3.45;;
66145;SDS011;52948;60.040;30.320;2023-03-31T22:07:33;5.85;;;5.15;;
66145;SDS011;52948;60.040;30.320;2023-03-31T22:12:35;7.53;;;4.05;;
66145;SDS011;52948;60.040;30.320;2023-03-31T22:17:37;5.80;;;3.92;;
66145;SDS011;52948;60.040;30.320;2023-03-31T22:22:39;6.60;;;4.15;;
66145;SDS011;52948;60.040;30.320;2023-03-31T22:27:43;3.40;;;2.55;;
66145;SDS011;52948;60.040;30.320;2023-03-31T22:32:46;3.65;;;2.45;;
66145;SDS011;52948;60.040;30.320;2023-03-31T22:37:48;3.35;;;1.85;;
66145;SDS011;52948;60.040;30.320;2023-03-31T22:42:51;6.18;;;4.57;;
66145;SDS011;52948;60.040;30.320;2023-03-31T22:47:56;5.05;;;3.85;;
66145;SDS011;52948;60.040;30.320;2023-03-31T22:52:58;5.38;;;3.35;;
66145;SDS011;52948;60.040;30.320;2023-03-31T22:58:00;4.65;;;3.15;;
66145;SDS011;52948;60.040;30.320;2023-03-31T23:03:03;4.10;;;3.15;;
66145;SDS011;52948;60.040;30.320;2023-03-31T23:08:05;5.82;;;3.80;;
66145;SDS011;52948;60.040;30.320;2023-03-31T23:13:07;1.40;;;0.95;;
66145;SDS011;52948;60.040;30.320;2023-03-31T23:18:10;4.03;;;3.63;;
66145;SDS011;52948;60.040;30.320;2023-03-31T23:23:12;4.32;;;2.72;;
66145;SDS011;52948;60.040;30.320;2023-03-31T23:28:14;3.92;;;2.90;;
66145;SDS011;52948;60.040;30.320;2023-03-31T23:33:17;4.35;;;3.00;;
66145;SDS011;52948;60.040;30.320;2023-03-31T23:38:19;5.25;;;3.20;;
66145;SDS011;52948;60.040;30.320;2023-03-31T23:43:22;5.53;;;3.13;;
66145;SDS011;52948;60.040;30.320;2023-03-31T23:48:24;6.28;;;3.05;;
66145;SDS011;52948;60.040;30.320;2023-03-31T23:53:26;3.65;;;2.55;;
66145;SDS011;52948;60.040;30.320;2023-03-31T23:58:28;3.05;;;2.53;;
